Oakfield, Wisconsin
Current Conditions -  °F | °C
As of 9:53 AM on Thursday 29 Jan 2015 (Local Time) from KFLD Reporting Station
Overcast Overcast  
Wind Chill: 21°   Ceiling: 1600
Heat Index: 32°   Visibility: 8mi
Dew Point: 25°   Wind: 17mph
Humidity: 75%   Direction: 320°NW
Pressure: 29.9"   Gusts: 25mph
Location:  43.69°N, 88.55°W
Report Text: KFLD 291553Z AUTO 32015G22KT 8SM OVC016 00/M04 A2990 RMK AO2 SLP134 T00001039
Loading
Personal Weather Stations






























Interactive Weather Map New forecast layout! Learn more

10-Day Weather Forecast

Advertisements
Track Severe Weather on mobile